Lakeway's Hourly Summary for Sunday, May 13, 2018
Hour Temp
(f)
RH
(%)
Solar Rad.
(MJ/m2)
Rainfall
(in)
Wind
(mph)
5/13/2018 12:00 AM 76 83 0 0 3.27
5/13/2018 1:00 AM 74 85 0 0 3.17
5/13/2018 2:00 AM 74 85 0 0 3.01
5/13/2018 3:00 AM 74 86 0 0 2.35
5/13/2018 4:00 AM 73 87 0 0 2.01
5/13/2018 5:00 AM 73 89 0 0 1.66
5/13/2018 6:00 AM 73 91 0.01 0 1.07
5/13/2018 7:00 AM 73 91 0.14 0 0.86
5/13/2018 8:00 AM 74 91 0.35 0 0.86
5/13/2018 9:00 AM 76 88 1.02 0 2.46
5/13/2018 10:00 AM 79 77 1.73 0 2.51
5/13/2018 11:00 AM 82 69 2.15 0 2.86
5/13/2018 12:00 PM 83 63 2.3 0 2.86
5/13/2018 1:00 PM 85 58 2.66 0 2.88
5/13/2018 2:00 PM 86 52 2.66 0 3.23
5/13/2018 3:00 PM 87 49 2.54 0 3.25
5/13/2018 4:00 PM 89 47 2.35 0 3.25
5/13/2018 5:00 PM 89 44 2.35 0 2.92
5/13/2018 6:00 PM 88 46 1.46 0 2.9
5/13/2018 7:00 PM 88 49 0.96 0 2.46
5/13/2018 8:00 PM 86 55 0.33 0 2.22
5/13/2018 9:00 PM 83 60 0.01 0 3.38
5/13/2018 10:00 PM 81 66 0 0 3.88
5/13/2018 11:00 PM 79 74 0 0 3.88
Data Summary 80 70 23.02 0.00 2.63